sensor_id;sensor_type;location;lat;lon;timestamp;pressure;altitude;pressure_sealevel;temperature;humidity
69570;BME280;56781;42.292;23.146;2024-01-15T00:01:42;94519.53;;;-11.73;85.05
69570;BME280;56781;42.292;23.146;2024-01-15T00:04:11;94995.69;;;-8.49;84.21
69570;BME280;56781;42.292;23.146;2024-01-15T00:06:41;94995.09;;;-8.46;85.34
69570;BME280;56781;42.292;23.146;2024-01-15T00:09:10;94935.19;;;-9.16;85.36
69570;BME280;56781;42.292;23.146;2024-01-15T00:11:39;94693.00;;;-10.29;84.87
69570;BME280;56781;42.292;23.146;2024-01-15T00:14:09;94992.38;;;-8.18;84.63
69570;BME280;56781;42.292;23.146;2024-01-15T00:16:40;94995.63;;;-8.21;83.87
69570;BME280;56781;42.292;23.146;2024-01-15T00:19:09;94370.63;;;-12.41;83.16
69570;BME280;56781;42.292;23.146;2024-01-15T00:21:38;94837.03;;;-9.66;82.79
69570;BME280;56781;42.292;23.146;2024-01-15T00:24:07;94527.06;;;-11.99;81.99
69570;BME280;56781;42.292;23.146;2024-01-15T00:26:36;94836.25;;;-9.81;82.90
69570;BME280;56781;42.292;23.146;2024-01-15T00:29:06;94367.50;;;-12.81;81.44
69570;BME280;56781;42.292;23.146;2024-01-15T00:31:37;94094.84;;;-14.75;81.67
69570;BME280;56781;42.292;23.146;2024-01-15T00:34:06;94175.78;;;-13.96;82.62
69570;BME280;56781;42.292;23.146;2024-01-15T00:36:36;94850.09;;;-9.56;81.40
69570;BME280;56781;42.292;23.146;2024-01-15T00:39:05;94568.94;;;-11.98;80.80
69570;BME280;56781;42.292;23.146;2024-01-15T00:41:34;94112.59;;;-15.20;81.47
69570;BME280;56781;42.292;23.146;2024-01-15T00:44:03;94859.19;;;-10.41;82.56
69570;BME280;56781;42.292;23.146;2024-01-15T00:46:32;94121.44;;;-15.11;80.75
69570;BME280;56781;42.292;23.146;2024-01-15T00:49:02;94988.78;;;-9.38;82.93
69570;BME280;56781;42.292;23.146;2024-01-15T00:51:31;94843.34;;;-10.60;82.61
69570;BME280;56781;42.292;23.146;2024-01-15T00:54:01;94884.25;;;-10.58;83.44
69570;BME280;56781;42.292;23.146;2024-01-15T00:56:30;94181.97;;;-15.07;83.52
69570;BME280;56781;42.292;23.146;2024-01-15T00:58:59;94994.91;;;-9.56;84.78
69570;BME280;56781;42.292;23.146;2024-01-15T01:01:28;94652.88;;;-11.67;84.55
69570;BME280;56781;42.292;23.146;2024-01-15T01:03:57;94836.63;;;-10.20;83.33
69570;BME280;56781;42.292;23.146;2024-01-15T01:06:28;94847.97;;;-10.00;82.34
69570;BME280;56781;42.292;23.146;2024-01-15T01:09:00;94970.47;;;-9.21;81.26
69570;BME280;56781;42.292;23.146;2024-01-15T01:11:29;94977.53;;;-9.30;81.93
69570;BME280;56781;42.292;23.146;2024-01-15T01:13:58;94823.19;;;-10.23;82.21
69570;BME280;56781;42.292;23.146;2024-01-15T01:16:28;94963.78;;;-9.32;83.14
69570;BME280;56781;42.292;23.146;2024-01-15T01:18:58;94815.69;;;-10.16;82.34
69570;BME280;56781;42.292;23.146;2024-01-15T01:21:29;94832.69;;;-10.36;81.65
69570;BME280;56781;42.292;23.146;2024-01-15T01:23:58;94428.09;;;-13.05;80.25
69570;BME280;56781;42.292;23.146;2024-01-15T01:26:27;95019.34;;;-9.46;82.49
69570;BME280;56781;42.292;23.146;2024-01-15T01:28:56;95001.06;;;-9.28;82.65
69570;BME280;56781;42.292;23.146;2024-01-15T01:31:26;94985.13;;;-9.09;83.19
69570;BME280;56781;42.292;23.146;2024-01-15T01:33:55;94971.00;;;-8.91;82.99
69570;BME280;56781;42.292;23.146;2024-01-15T01:36:24;94181.31;;;-13.98;81.79
69570;BME280;56781;42.292;23.146;2024-01-15T01:38:55;94991.94;;;-8.76;80.55
69570;BME280;56781;42.292;23.146;2024-01-15T01:41:24;94825.78;;;-9.72;81.68
69570;BME280;56781;42.292;23.146;2024-01-15T01:43:53;94164.06;;;-14.28;80.27
69570;BME280;56781;42.292;23.146;2024-01-15T01:46:22;94847.31;;;-9.92;80.79
69570;BME280;56781;42.292;23.146;2024-01-15T01:48:53;94661.78;;;-12.01;80.58
69570;BME280;56781;42.292;23.146;2024-01-15T01:51:24;94954.72;;;-9.77;83.21
69570;BME280;56781;42.292;23.146;2024-01-15T01:53:55;94469.31;;;-12.77;83.24
69570;BME280;56781;42.292;23.146;2024-01-15T01:56:24;94908.31;;;-9.70;82.96
69570;BME280;56781;42.292;23.146;2024-01-15T01:58:53;94810.34;;;-10.44;82.66
69570;BME280;56781;42.292;23.146;2024-01-15T02:01:23;94952.78;;;-9.39;83.00
69570;BME280;56781;42.292;23.146;2024-01-15T02:03:52;94952.53;;;-9.24;83.48
69570;BME280;56781;42.292;23.146;2024-01-15T02:06:23;94947.91;;;-9.32;82.60
69570;BME280;56781;42.292;23.146;2024-01-15T02:08:54;94095.81;;;-14.71;83.01
69570;BME280;56781;42.292;23.146;2024-01-15T02:11:23;94927.72;;;-9.28;84.05
69570;BME280;56781;42.292;23.146;2024-01-15T02:13:53;94927.25;;;-9.02;84.28
69570;BME280;56781;42.292;23.146;2024-01-15T02:16:22;94923.22;;;-9.00;83.83
69570;BME280;56781;42.292;23.146;2024-01-15T02:18:51;94124.22;;;-14.30;83.46
69570;BME280;56781;42.292;23.146;2024-01-15T02:21:20;94948.34;;;-9.11;83.56
69570;BME280;56781;42.292;23.146;2024-01-15T02:23:51;94952.34;;;-9.13;82.07
69570;BME280;56781;42.292;23.146;2024-01-15T02:26:20;94550.66;;;-11.75;82.23
69570;BME280;56781;42.292;23.146;2024-01-15T02:28:50;94819.25;;;-9.93;83.26
69570;BME280;56781;42.292;23.146;2024-01-15T02:31:19;94747.53;;;-10.06;84.54
69570;BME280;56781;42.292;23.146;2024-01-15T02:33:49;94640.34;;;-10.72;84.05
69570;BME280;56781;42.292;23.146;2024-01-15T02:36:18;94752.69;;;-9.68;83.95
69570;BME280;56781;42.292;23.146;2024-01-15T02:38:47;94896.00;;;-8.50;83.93
69570;BME280;56781;42.292;23.146;2024-01-15T02:41:18;94897.59;;;-8.49;82.71
69570;BME280;56781;42.292;23.146;2024-01-15T02:43:47;94738.56;;;-9.49;82.12
69570;BME280;56781;42.292;23.146;2024-01-15T02:46:16;94726.50;;;-9.69;83.26
69570;BME280;56781;42.292;23.146;2024-01-15T02:48:45;94721.09;;;-9.64;82.82
69570;BME280;56781;42.292;23.146;2024-01-15T02:51:14;93984.91;;;-14.39;83.06
69570;BME280;56781;42.292;23.146;2024-01-15T02:53:44;94823.41;;;-8.90;82.91
69570;BME280;56781;42.292;23.146;2024-01-15T02:56:13;94848.31;;;-8.64;82.03
69570;BME280;56781;42.292;23.146;2024-01-15T02:58:43;94711.09;;;-9.53;82.22
69570;BME280;56781;42.292;23.146;2024-01-15T03:01:12;94022.88;;;-13.79;80.82
69570;BME280;56781;42.292;23.146;2024-01-15T03:03:42;94845.13;;;-8.52;81.48
69570;BME280;56781;42.292;23.146;2024-01-15T03:06:11;94873.16;;;-8.60;81.65
69570;BME280;56781;42.292;23.146;2024-01-15T03:08:40;94310.72;;;-12.03;81.84
69570;BME280;56781;42.292;23.146;2024-01-15T03:11:09;94847.75;;;-8.38;82.27
69570;BME280;56781;42.292;23.146;2024-01-15T03:13:38;94642.34;;;-9.81;82.47
69570;BME280;56781;42.292;23.146;2024-01-15T03:16:08;94440.97;;;-11.16;84.09
69570;BME280;56781;42.292;23.146;2024-01-15T03:18:38;94285.69;;;-12.33;83.46
69570;BME280;56781;42.292;23.146;2024-01-15T03:21:07;94267.56;;;-12.07;82.92
69570;BME280;56781;42.292;23.146;2024-01-15T03:23:36;93971.81;;;-14.25;82.03
69570;BME280;56781;42.292;23.146;2024-01-15T03:26:05;94363.19;;;-11.60;81.59
69570;BME280;56781;42.292;23.146;2024-01-15T03:28:34;94729.81;;;-9.22;82.46
69570;BME280;56781;42.292;23.146;2024-01-15T03:31:04;94725.00;;;-9.48;82.84
69570;BME280;56781;42.292;23.146;2024-01-15T03:33:34;94058.97;;;-13.52;82.40
69570;BME280;56781;42.292;23.146;2024-01-15T03:36:04;94849.25;;;-8.46;81.03
69570;BME280;56781;42.292;23.146;2024-01-15T03:38:33;93870.00;;;-15.12;80.35
69570;BME280;56781;42.292;23.146;2024-01-15T03:41:02;94113.06;;;-13.84;80.90
69570;BME280;56781;42.292;23.146;2024-01-15T03:43:31;94023.00;;;-14.41;80.44
69570;BME280;56781;42.292;23.146;2024-01-15T03:46:00;93946.69;;;-14.83;80.90
69570;BME280;56781;42.292;23.146;2024-01-15T03:48:30;94671.13;;;-10.21;81.11
69570;BME280;56781;42.292;23.146;2024-01-15T03:51:01;94867.78;;;-9.38;81.33
69570;BME280;56781;42.292;23.146;2024-01-15T03:53:29;94722.25;;;-10.26;81.11
69570;BME280;56781;42.292;23.146;2024-01-15T03:55:59;94058.63;;;-14.73;80.82
69570;BME280;56781;42.292;23.146;2024-01-15T03:58:28;94840.53;;;-9.38;81.88
69570;BME280;56781;42.292;23.146;2024-01-15T04:00:57;94769.88;;;-10.12;81.60
69570;BME280;56781;42.292;23.146;2024-01-15T04:03:27;94538.50;;;-11.39;82.14
69570;BME280;56781;42.292;23.146;2024-01-15T04:05:56;93996.34;;;-14.86;81.50
69570;BME280;56781;42.292;23.146;2024-01-15T04:08:27;93938.00;;;-15.21;82.04
69570;BME280;56781;42.292;23.146;2024-01-15T04:10:56;94822.50;;;-9.36;81.65
69570;BME280;56781;42.292;23.146;2024-01-15T04:13:25;94675.94;;;-10.23;82.10
69570;BME280;56781;42.292;23.146;2024-01-15T04:15:54;94818.66;;;-9.30;81.98
69570;BME280;56781;42.292;23.146;2024-01-15T04:18:23;94404.88;;;-12.41;81.27
69570;BME280;56781;42.292;23.146;2024-01-15T04:20:53;94655.78;;;-10.46;82.35
69570;BME280;56781;42.292;23.146;2024-01-15T04:23:21;94339.69;;;-12.68;82.79
69570;BME280;56781;42.292;23.146;2024-01-15T04:25:52;94055.38;;;-14.65;81.74
69570;BME280;56781;42.292;23.146;2024-01-15T04:28:21;94800.41;;;-9.59;82.94
69570;BME280;56781;42.292;23.146;2024-01-15T04:30:50;94058.72;;;-14.59;83.20
69570;BME280;56781;42.292;23.146;2024-01-15T04:33:20;94635.41;;;-10.46;83.03
69570;BME280;56781;42.292;23.146;2024-01-15T04:35:49;94645.91;;;-10.27;81.96
69570;BME280;56781;42.292;23.146;2024-01-15T04:38:18;94029.19;;;-14.70;82.10
69570;BME280;56781;42.292;23.146;2024-01-15T04:40:47;93965.19;;;-14.93;84.37
69570;BME280;56781;42.292;23.146;2024-01-15T04:43:17;94847.19;;;-9.27;85.60
69570;BME280;56781;42.292;23.146;2024-01-15T04:45:46;94408.28;;;-11.89;85.07
69570;BME280;56781;42.292;23.146;2024-01-15T04:48:15;94032.78;;;-14.28;83.59
69570;BME280;56781;42.292;23.146;2024-01-15T04:50:45;94106.06;;;-13.70;82.88
69570;BME280;56781;42.292;23.146;2024-01-15T04:53:14;94555.63;;;-10.34;82.40
69570;BME280;56781;42.292;23.146;2024-01-15T04:55:42;94529.44;;;-10.44;81.56
69570;BME280;56781;42.292;23.146;2024-01-15T04:58:12;94272.34;;;-12.23;81.22
69570;BME280;56781;42.292;23.146;2024-01-15T05:00:42;94668.78;;;-9.81;81.88
69570;BME280;56781;42.292;23.146;2024-01-15T05:03:11;94435.69;;;-11.30;81.93
69570;BME280;56781;42.292;23.146;2024-01-15T05:05:41;94051.50;;;-13.78;81.44
69570;BME280;56781;42.292;23.146;2024-01-15T05:08:10;94821.44;;;-8.85;81.89
69570;BME280;56781;42.292;23.146;2024-01-15T05:10:39;94514.53;;;-10.96;82.53
69570;BME280;56781;42.292;23.146;2024-01-15T05:13:07;94002.50;;;-14.20;82.47
69570;BME280;56781;42.292;23.146;2024-01-15T05:15:37;94712.34;;;-9.37;82.19
69570;BME280;56781;42.292;23.146;2024-01-15T05:18:08;94748.91;;;-9.11;82.05
69570;BME280;56781;42.292;23.146;2024-01-15T05:20:37;94647.53;;;-9.90;82.94
69570;BME280;56781;42.292;23.146;2024-01-15T05:23:06;94691.09;;;-9.46;82.95
69570;BME280;56781;42.292;23.146;2024-01-15T05:25:35;94628.94;;;-9.98;82.21
69570;BME280;56781;42.292;23.146;2024-01-15T05:28:05;94776.16;;;-9.11;82.86
69570;BME280;56781;42.292;23.146;2024-01-15T05:30:34;94786.94;;;-9.07;83.29
69570;BME280;56781;42.292;23.146;2024-01-15T05:33:04;93933.13;;;-14.52;82.62
69570;BME280;56781;42.292;23.146;2024-01-15T05:35:37;94766.13;;;-8.86;82.73
69570;BME280;56781;42.292;23.146;2024-01-15T05:38:06;94303.38;;;-12.06;81.59
69570;BME280;56781;42.292;23.146;2024-01-15T05:40:34;94776.34;;;-9.07;82.10
69570;BME280;56781;42.292;23.146;2024-01-15T05:43:04;94778.16;;;-9.30;82.41
69570;BME280;56781;42.292;23.146;2024-01-15T05:45:34;93924.06;;;-15.16;81.79
69570;BME280;56781;42.292;23.146;2024-01-15T05:48:04;94786.00;;;-9.39;82.91
69570;BME280;56781;42.292;23.146;2024-01-15T05:50:33;94769.81;;;-9.24;83.61
69570;BME280;56781;42.292;23.146;2024-01-15T05:53:04;94635.38;;;-10.05;82.93
69570;BME280;56781;42.292;23.146;2024-01-15T05:55:34;94547.22;;;-10.78;82.00
69570;BME280;56781;42.292;23.146;2024-01-15T05:58:03;94777.56;;;-9.41;81.62
69570;BME280;56781;42.292;23.146;2024-01-15T06:00:32;94735.25;;;-9.55;81.96
69570;BME280;56781;42.292;23.146;2024-01-15T06:03:03;94756.31;;;-9.36;81.35
69570;BME280;56781;42.292;23.146;2024-01-15T06:05:32;93821.56;;;-15.77;80.77
69570;BME280;56781;42.292;23.146;2024-01-15T06:08:03;94413.66;;;-12.13;81.03
69570;BME280;56781;42.292;23.146;2024-01-15T06:10:32;94467.94;;;-11.33;81.46
69570;BME280;56781;42.292;23.146;2024-01-15T06:13:01;94161.44;;;-13.47;81.71
69570;BME280;56781;42.292;23.146;2024-01-15T06:15:30;94761.06;;;-9.10;82.10
69570;BME280;56781;42.292;23.146;2024-01-15T06:17:59;94437.84;;;-11.18;82.09
69570;BME280;56781;42.292;23.146;2024-01-15T06:20:28;94753.09;;;-8.74;82.50
69570;BME280;56781;42.292;23.146;2024-01-15T06:22:57;94624.81;;;-9.41;82.29
69570;BME280;56781;42.292;23.146;2024-01-15T06:25:28;94637.91;;;-9.22;81.82
69570;BME280;56781;42.292;23.146;2024-01-15T06:27:57;94127.81;;;-12.57;82.04
69570;BME280;56781;42.292;23.146;2024-01-15T06:30:26;94037.03;;;-13.15;80.39
69570;BME280;56781;42.292;23.146;2024-01-15T06:32:55;94659.25;;;-8.96;81.71
69570;BME280;56781;42.292;23.146;2024-01-15T06:35:24;94750.88;;;-8.36;81.22
69570;BME280;56781;42.292;23.146;2024-01-15T06:37:53;94329.13;;;-10.93;80.29
69570;BME280;56781;42.292;23.146;2024-01-15T06:40:22;94606.84;;;-9.07;80.29
69570;BME280;56781;42.292;23.146;2024-01-15T06:42:53;94762.53;;;-7.92;80.21
69570;BME280;56781;42.292;23.146;2024-01-15T06:45:22;94636.78;;;-8.53;79.05
69570;BME280;56781;42.292;23.146;2024-01-15T06:47:51;94677.44;;;-8.27;80.04
69570;BME280;56781;42.292;23.146;2024-01-15T06:50:21;94168.88;;;-11.65;78.71
69570;BME280;56781;42.292;23.146;2024-01-15T06:52:50;93666.78;;;-14.41;77.24
69570;BME280;56781;42.292;23.146;2024-01-15T06:55:19;94767.84;;;-7.03;77.73
69570;BME280;56781;42.292;23.146;2024-01-15T06:57:48;94586.81;;;-8.20;76.96
69570;BME280;56781;42.292;23.146;2024-01-15T07:00:19;94764.88;;;-7.02;78.34
69570;BME280;56781;42.292;23.146;2024-01-15T07:02:48;94537.78;;;-8.49;77.39
69570;BME280;56781;42.292;23.146;2024-01-15T07:05:17;94775.72;;;-6.72;77.84
69570;BME280;56781;42.292;23.146;2024-01-15T07:07:46;94286.91;;;-9.85;76.31
69570;BME280;56781;42.292;23.146;2024-01-15T07:10:16;94616.84;;;-7.19;75.95
69570;BME280;56781;42.292;23.146;2024-01-15T07:12:45;93994.94;;;-11.70;76.70
69570;BME280;56781;42.292;23.146;2024-01-15T07:15:15;94755.06;;;-6.58;78.34
69570;BME280;56781;42.292;23.146;2024-01-15T07:17:45;94336.19;;;-9.18;79.30
69570;BME280;56781;42.292;23.146;2024-01-15T07:20:14;94181.66;;;-10.06;78.94
69570;BME280;56781;42.292;23.146;2024-01-15T07:22:44;94267.59;;;-9.37;79.23
69570;BME280;56781;42.292;23.146;2024-01-15T07:25:13;94611.34;;;-6.96;79.85
69570;BME280;56781;42.292;23.146;2024-01-15T07:27:42;94135.22;;;-9.81;78.94
69570;BME280;56781;42.292;23.146;2024-01-15T07:30:12;94029.84;;;-10.39;79.36
69570;BME280;56781;42.292;23.146;2024-01-15T07:32:42;94744.00;;;-5.19;77.63
69570;BME280;56781;42.292;23.146;2024-01-15T07:35:12;94748.50;;;-5.10;78.19
69570;BME280;56781;42.292;23.146;2024-01-15T07:37:41;94607.91;;;-5.64;76.53
69570;BME280;56781;42.292;23.146;2024-01-15T07:40:11;93989.84;;;-9.51;75.02
69570;BME280;56781;42.292;23.146;2024-01-15T07:42:39;94728.59;;;-4.41;75.34
69570;BME280;56781;42.292;23.146;2024-01-15T07:45:10;94347.16;;;-7.04;74.23
69570;BME280;56781;42.292;23.146;2024-01-15T07:47:39;94757.84;;;-4.96;76.84
69570;BME280;56781;42.292;23.146;2024-01-15T07:50:08;94266.69;;;-8.28;77.00
69570;BME280;56781;42.292;23.146;2024-01-15T07:52:39;94699.91;;;-5.07;76.55
69570;BME280;56781;42.292;23.146;2024-01-15T07:55:09;93995.34;;;-9.82;75.62
69570;BME280;56781;42.292;23.146;2024-01-15T07:57:38;94021.91;;;-9.44;74.42
69570;BME280;56781;42.292;23.146;2024-01-15T08:00:07;94369.59;;;-7.22;75.35
69570;BME280;56781;42.292;23.146;2024-01-15T08:02:37;94044.88;;;-9.01;74.15
69570;BME280;56781;42.292;23.146;2024-01-15T08:05:06;94761.59;;;-4.25;74.67
69570;BME280;56781;42.292;23.146;2024-01-15T08:07:35;94041.28;;;-8.96;74.57
69570;BME280;56781;42.292;23.146;2024-01-15T08:10:06;94774.72;;;-4.62;76.78
69570;BME280;56781;42.292;23.146;2024-01-15T08:12:35;94756.72;;;-4.44;75.70
69570;BME280;56781;42.292;23.146;2024-01-15T08:15:05;94029.06;;;-9.27;75.30
69570;BME280;56781;42.292;23.146;2024-01-15T08:17:34;94701.97;;;-4.92;76.11
69570;BME280;56781;42.292;23.146;2024-01-15T08:20:04;94803.53;;;-4.47;76.45
69570;BME280;56781;42.292;23.146;2024-01-15T08:22:33;94328.31;;;-7.11;75.52
69570;BME280;56781;42.292;23.146;2024-01-15T08:25:02;94486.09;;;-5.22;74.28
69570;BME280;56781;42.292;23.146;2024-01-15T08:27:33;94747.66;;;-3.52;74.21
69570;BME280;56781;42.292;23.146;2024-01-15T08:30:02;94745.56;;;-3.34;73.78
69570;BME280;56781;42.292;23.146;2024-01-15T08:32:31;94690.41;;;-3.51;73.54
69570;BME280;56781;42.292;23.146;2024-01-15T08:35:00;94737.88;;;-3.23;74.12
69570;BME280;56781;42.292;23.146;2024-01-15T08:37:31;94629.38;;;-3.98;73.75
69570;BME280;56781;42.292;23.146;2024-01-15T08:40:00;94304.47;;;-6.15;74.30
69570;BME280;56781;42.292;23.146;2024-01-15T08:42:29;94076.28;;;-7.21;74.76
69570;BME280;56781;42.292;23.146;2024-01-15T08:44:59;94187.94;;;-6.88;73.84
69570;BME280;56781;42.292;23.146;2024-01-15T08:47:29;94584.06;;;-3.58;73.01
69570;BME280;56781;42.292;23.146;2024-01-15T08:49:57;93869.38;;;-8.26;72.70
69570;BME280;56781;42.292;23.146;2024-01-15T08:52:26;94649.66;;;-3.36;73.34
69570;BME280;56781;42.292;23.146;2024-01-15T08:54:56;94706.84;;;-2.63;73.41
69570;BME280;56781;42.292;23.146;2024-01-15T08:57:25;93998.81;;;-7.23;71.95
69570;BME280;56781;42.292;23.146;2024-01-15T08:59:54;93964.38;;;-7.65;71.81
69570;BME280;56781;42.292;23.146;2024-01-15T09:02:24;94579.91;;;-3.30;72.83
69570;BME280;56781;42.292;23.146;2024-01-15T09:04:53;94583.91;;;-3.24;73.07
69570;BME280;56781;42.292;23.146;2024-01-15T09:07:22;94703.78;;;-2.21;73.13
69570;BME280;56781;42.292;23.146;2024-01-15T09:09:52;94342.94;;;-4.07;71.48
69570;BME280;56781;42.292;23.146;2024-01-15T09:12:21;94565.28;;;-2.05;70.46
69570;BME280;56781;42.292;23.146;2024-01-15T09:14:50;94683.13;;;-1.29;69.79
69570;BME280;56781;42.292;23.146;2024-01-15T09:17:20;93894.38;;;-6.38;68.63
69570;BME280;56781;42.292;23.146;2024-01-15T09:19:52;94224.50;;;-4.43;70.35
69570;BME280;56781;42.292;23.146;2024-01-15T09:22:20;93974.06;;;-6.17;70.72
69570;BME280;56781;42.292;23.146;2024-01-15T09:24:49;94377.50;;;-3.14;70.11
69570;BME280;56781;42.292;23.146;2024-01-15T09:27:18;94153.03;;;-4.78;70.42
69570;BME280;56781;42.292;23.146;2024-01-15T09:29:47;94339.66;;;-3.60;70.31
69570;BME280;56781;42.292;23.146;2024-01-15T09:32:16;94653.81;;;-1.02;70.66
69570;BME280;56781;42.292;23.146;2024-01-15T09:34:46;94227.91;;;-3.86;70.70
69570;BME280;56781;42.292;23.146;2024-01-15T09:37:16;94639.81;;;-1.63;73.18
69570;BME280;56781;42.292;23.146;2024-01-15T09:40:06;93960.88;;;-5.85;72.31
69570;BME280;56781;42.292;23.146;2024-01-15T09:42:37;94596.28;;;-1.21;68.95
69570;BME280;56781;42.292;23.146;2024-01-15T09:45:06;94359.19;;;-2.80;69.82
69570;BME280;56781;42.292;23.146;2024-01-15T09:47:36;93968.03;;;-5.17;69.51
69570;BME280;56781;42.292;23.146;2024-01-15T09:50:11;94413.69;;;-2.06;67.27
69570;BME280;56781;42.292;23.146;2024-01-15T09:52:43;94490.34;;;-1.66;68.25
69570;BME280;56781;42.292;23.146;2024-01-15T09:55:13;94604.81;;;-0.99;67.61
69570;BME280;56781;42.292;23.146;2024-01-15T09:57:44;94362.28;;;-2.47;65.87
69570;BME280;56781;42.292;23.146;2024-01-15T10:00:14;94586.16;;;-0.53;66.94
69570;BME280;56781;42.292;23.146;2024-01-15T10:02:46;93847.09;;;-5.13;64.91
69570;BME280;56781;42.292;23.146;2024-01-15T10:05:15;93987.53;;;-3.67;64.21
69570;BME280;56781;42.292;23.146;2024-01-15T10:07:46;94167.16;;;-2.29;63.46
69570;BME280;56781;42.292;23.146;2024-01-15T10:10:17;94468.69;;;-0.10;65.11
69570;BME280;56781;42.292;23.146;2024-01-15T10:12:45;94549.94;;;0.29;63.38
69570;BME280;56781;42.292;23.146;2024-01-15T10:15:14;94540.31;;;0.28;63.82
69570;BME280;56781;42.292;23.146;2024-01-15T10:17:44;94073.28;;;-2.82;62.93
69570;BME280;56781;42.292;23.146;2024-01-15T10:20:14;94475.81;;;0.32;63.52
69570;BME280;56781;42.292;23.146;2024-01-15T10:22:43;93916.81;;;-3.53;63.50
69570;BME280;56781;42.292;23.146;2024-01-15T10:25:15;94404.97;;;-0.33;64.21
69570;BME280;56781;42.292;23.146;2024-01-15T10:27:59;93611.56;;;-5.59;60.88
69570;BME280;56781;42.292;23.146;2024-01-15T10:30:28;93836.88;;;-3.62;62.12
69570;BME280;56781;42.292;23.146;2024-01-15T10:32:58;94543.84;;;0.89;61.34
69570;BME280;56781;42.292;23.146;2024-01-15T10:35:30;94130.22;;;-1.50;60.57
69570;BME280;56781;42.292;23.146;2024-01-15T10:37:59;94506.00;;;1.08;61.94
69570;BME280;56781;42.292;23.146;2024-01-15T10:40:29;93788.34;;;-3.64;60.19
69570;BME280;56781;42.292;23.146;2024-01-15T10:42:58;93986.09;;;-2.14;59.11
69570;BME280;56781;42.292;23.146;2024-01-15T10:45:27;94078.94;;;-1.19;59.84
69570;BME280;56781;42.292;23.146;2024-01-15T10:47:56;94488.72;;;1.88;58.63
69570;BME280;56781;42.292;23.146;2024-01-15T10:50:26;94377.34;;;1.32;57.50
69570;BME280;56781;42.292;23.146;2024-01-15T10:52:56;94382.44;;;1.41;57.57
69570;BME280;56781;42.292;23.146;2024-01-15T10:55:25;93788.50;;;-2.24;56.79
69570;BME280;56781;42.292;23.146;2024-01-15T10:57:57;93714.88;;;-2.41;56.02
69570;BME280;56781;42.292;23.146;2024-01-15T11:00:26;94170.97;;;0.13;56.27
69570;BME280;56781;42.292;23.146;2024-01-15T11:02:56;94362.47;;;1.01;57.80
69570;BME280;56781;42.292;23.146;2024-01-15T11:05:25;94015.53;;;-1.30;56.09
69570;BME280;56781;42.292;23.146;2024-01-15T11:07:55;93808.63;;;-2.64;57.24
69570;BME280;56781;42.292;23.146;2024-01-15T11:10:40;94427.75;;;1.76;58.59
69570;BME280;56781;42.292;23.146;2024-01-15T11:13:14;93736.81;;;-2.88;58.48
69570;BME280;56781;42.292;23.146;2024-01-15T11:15:58;94168.41;;;-0.13;57.65
69570;BME280;56781;42.292;23.146;2024-01-15T11:18:29;93723.88;;;-3.13;58.68
69570;BME280;56781;42.292;23.146;2024-01-15T11:21:21;94421.75;;;1.93;59.42
69570;BME280;56781;42.292;23.146;2024-01-15T11:23:53;94339.88;;;1.64;57.29
69570;BME280;56781;42.292;23.146;2024-01-15T11:26:31;93779.06;;;-1.81;57.83
69570;BME280;56781;42.292;23.146;2024-01-15T11:29:03;93956.97;;;-0.47;55.86
69570;BME280;56781;42.292;23.146;2024-01-15T11:31:57;94377.03;;;2.69;54.26
69570;BME280;56781;42.292;23.146;2024-01-15T11:34:55;94375.88;;;2.74;54.70
69570;BME280;56781;42.292;23.146;2024-01-15T11:37:56;93930.09;;;-0.54;55.38
69570;BME280;56781;42.292;23.146;2024-01-15T11:40:40;94051.72;;;0.39;54.70
69570;BME280;56781;42.292;23.146;2024-01-15T11:43:12;94272.78;;;1.48;56.05
69570;BME280;56781;42.292;23.146;2024-01-15T11:45:46;94170.06;;;0.91;55.77
69570;BME280;56781;42.292;23.146;2024-01-15T11:48:19;93780.44;;;-1.57;55.57
69570;BME280;56781;42.292;23.146;2024-01-15T11:50:51;93859.59;;;-0.88;56.16
69570;BME280;56781;42.292;23.146;2024-01-15T11:53:33;94276.53;;;2.06;55.88
69570;BME280;56781;42.292;23.146;2024-01-15T11:56:14;93757.63;;;-1.36;55.04
69570;BME280;56781;42.292;23.146;2024-01-15T11:58:43;94271.09;;;1.92;56.36
69570;BME280;56781;42.292;23.146;2024-01-15T12:01:13;93748.41;;;-1.42;56.99
69570;BME280;56781;42.292;23.146;2024-01-15T12:03:43;93868.81;;;-0.37;55.61
69570;BME280;56781;42.292;23.146;2024-01-15T12:06:13;93668.59;;;-1.60;55.49
69570;BME280;56781;42.292;23.146;2024-01-15T12:08:42;94225.03;;;2.36;55.31
69570;BME280;56781;42.292;23.146;2024-01-15T12:11:13;94322.72;;;3.14;54.27
69570;BME280;56781;42.292;23.146;2024-01-15T12:13:44;94236.22;;;2.46;54.60
69570;BME280;56781;42.292;23.146;2024-01-15T12:16:15;93732.56;;;-1.06;55.32
69570;BME280;56781;42.292;23.146;2024-01-15T12:18:44;93721.91;;;-0.99;54.92
69570;BME280;56781;42.292;23.146;2024-01-15T12:21:13;93983.84;;;0.64;54.95
69570;BME280;56781;42.292;23.146;2024-01-15T12:23:46;93738.84;;;-0.88;55.22
69570;BME280;56781;42.292;23.146;2024-01-15T12:26:15;94307.66;;;3.09;54.97
69570;BME280;56781;42.292;23.146;2024-01-15T12:28:43;94123.53;;;1.82;54.77
69570;BME280;56781;42.292;23.146;2024-01-15T12:31:13;94203.44;;;2.36;54.63
69570;BME280;56781;42.292;23.146;2024-01-15T12:33:44;93751.56;;;-0.78;54.83
69570;BME280;56781;42.292;23.146;2024-01-15T12:36:14;94024.47;;;1.32;55.50
69570;BME280;56781;42.292;23.146;2024-01-15T12:38:44;94205.41;;;2.68;55.23
69570;BME280;56781;42.292;23.146;2024-01-15T12:41:13;93927.75;;;0.73;54.85
69570;BME280;56781;42.292;23.146;2024-01-15T12:43:43;93602.22;;;-1.15;55.50
69570;BME280;56781;42.292;23.146;2024-01-15T12:46:11;93726.09;;;-0.32;55.70
69570;BME280;56781;42.292;23.146;2024-01-15T12:48:44;94273.31;;;3.56;55.01
69570;BME280;56781;42.292;23.146;2024-01-15T12:51:15;94285.66;;;3.50;55.46
69570;BME280;56781;42.292;23.146;2024-01-15T12:53:43;93583.88;;;-1.05;54.55
69570;BME280;56781;42.292;23.146;2024-01-15T12:56:12;94266.31;;;3.66;54.73
69570;BME280;56781;42.292;23.146;2024-01-15T12:58:41;93974.50;;;1.81;54.64
69570;BME280;56781;42.292;23.146;2024-01-15T13:01:10;93955.63;;;1.42;54.31
69570;BME280;56781;42.292;23.146;2024-01-15T13:03:38;93920.16;;;1.04;54.97